Rhonda Lamulle — WDC8441 — position and weather

sailwx.info

Track history (hours):
 
Tides and Currents Weather Stations Pressure Air Temp Water Temp Dewpoint Dewpoint Depression Visibility Wind Speed Wind Dir Waves Ship Positions

Rhonda Lamulle

Owner: Florida Marine, LLC, Mandeville, LA. More information available from US FCC via Universal Licensing System and Coast Guard Vessel Documentation Center.

Last reported at 2016-May-26 23:33 UTC. Time now 2016-May-30 18:24 UTC.
Position N 30°24' W 086°52'.

Length 13 m; draft 3 m.

Type: Towing. MMSI: 367087104.

Date/timePositionNaut miles runAvg speedWind from/ knotsBaromVisibWave heightAir tempDewpointWater temp
2016-May-26 23:33N 30°24' W 086°52'6 6.3
2016-May-26 22:33N 30°24' W 086°44'8 0.3
2016-May-26 00:09N 30°24' W 086°35'4 5.9
2016-May-25 23:33N 30°25' W 086°32'5 5.0
2016-May-25 22:33N 30°29' W 086°29'1 0.7
2016-May-25 21:33N 30°29' W 086°29'0 0.1
2016-May-25 20:33N 30°29' W 086°29'0 0.0
2016-May-25 19:33N 30°29' W 086°29'0 0.0
2016-May-25 18:33N 30°29' W 086°29'0 0.0
2016-May-25 17:33N 30°29' W 086°29'0 0.0
2016-May-25 16:33N 30°29' W 086°29'0 0.0
2016-May-25 15:33N 30°29' W 086°29'0 0.0
2016-May-25 14:33N 30°29' W 086°29'0 0.0
2016-May-25 13:04N 30°29' W 086°29'0 0.0
2016-May-25 12:33N 30°29' W 086°29'0 0.1
2016-May-25 11:33N 30°29' W 086°29'0 0.0
2016-May-25 10:33N 30°29' W 086°29'0 0.0
2016-May-25 09:33N 30°29' W 086°29'0 0.4
2016-May-25 08:33N 30°29' W 086°29'5 4.6
2016-May-25 07:33N 30°26' W 086°25'6 6.0
2016-May-25 06:33N 30°26' W 086°18'3 0.1
2016-May-23 18:03N 30°26' W 086°15'3 5.9
2016-May-23 17:33N 30°26' W 086°19'6 6.0
2016-May-23 16:33N 30°26' W 086°25'6 5.9
2016-May-23 15:33N 30°25' W 086°32'11 5.3
2016-May-23 13:33N 30°24' W 086°44'6 5.9
2016-May-23 12:33N 30°24' W 086°51'166 4.5
2016-May-21 23:23N 29°56' W 090°00'0 0.0
2016-May-21 13:33N 29°56' W 090°00'0 0.0
2016-May-21 12:33N 29°56' W 090°00'0 0.0
2016-May-21 11:33N 29°56' W 090°00'0 0.0
2016-May-21 10:33N 29°56' W 090°00'2 1.7
2016-May-21 09:33N 29°57' W 090°02'6 6.2
2016-May-21 08:33N 29°55' W 090°08'  
Track history (hours):
 
Tides and Currents Weather Stations Pressure Air Temp Water Temp Dewpoint Dewpoint Depression Visibility Wind Speed Wind Dir Waves Ship Positions

Rhonda Lamulle

Owner: Florida Marine, LLC, Mandeville, LA. More information available from US FCC via Universal Licensing System and Coast Guard Vessel Documentation Center.

Last reported at 2016-May-26 23:33 UTC. Time now 2016-May-30 18:24 UTC.
Position N 30°24' W 086°52'.

Length 13 m; draft 3 m.

Type: Towing. MMSI: 367087104.

Date/timePositionNaut miles runAvg speedWind from/ knotsBaromVisibWave heightAir tempDewpointWater temp
2016-May-26 23:33N 30°24' W 086°52'6 6.3
2016-May-26 22:33N 30°24' W 086°44'8 0.3
2016-May-26 00:09N 30°24' W 086°35'4 5.9
2016-May-25 23:33N 30°25' W 086°32'5 5.0
2016-May-25 22:33N 30°29' W 086°29'1 0.7
2016-May-25 21:33N 30°29' W 086°29'0 0.1
2016-May-25 20:33N 30°29' W 086°29'0 0.0
2016-May-25 19:33N 30°29' W 086°29'0 0.0
2016-May-25 18:33N 30°29' W 086°29'0 0.0
2016-May-25 17:33N 30°29' W 086°29'0 0.0
2016-May-25 16:33N 30°29' W 086°29'0 0.0
2016-May-25 15:33N 30°29' W 086°29'0 0.0
2016-May-25 14:33N 30°29' W 086°29'0 0.0
2016-May-25 13:04N 30°29' W 086°29'0 0.0
2016-May-25 12:33N 30°29' W 086°29'0 0.1
2016-May-25 11:33N 30°29' W 086°29'0 0.0
2016-May-25 10:33N 30°29' W 086°29'0 0.0
2016-May-25 09:33N 30°29' W 086°29'0 0.4
2016-May-25 08:33N 30°29' W 086°29'5 4.6
2016-May-25 07:33N 30°26' W 086°25'6 6.0
2016-May-25 06:33N 30°26' W 086°18'3 0.1
2016-May-23 18:03N 30°26' W 086°15'3 5.9
2016-May-23 17:33N 30°26' W 086°19'6 6.0
2016-May-23 16:33N 30°26' W 086°25'6 5.9
2016-May-23 15:33N 30°25' W 086°32'11 5.3
2016-May-23 13:33N 30°24' W 086°44'6 5.9
2016-May-23 12:33N 30°24' W 086°51'166 4.5
2016-May-21 23:23N 29°56' W 090°00'0 0.0
2016-May-21 13:33N 29°56' W 090°00'0 0.0
2016-May-21 12:33N 29°56' W 090°00'0 0.0
2016-May-21 11:33N 29°56' W 090°00'0 0.0
2016-May-21 10:33N 29°56' W 090°00'2 1.7
2016-May-21 09:33N 29°57' W 090°02'6 6.2
2016-May-21 08:33N 29°55' W 090°08'  

Dump ship's entire track history